createdAt,value
2023-01-23T07:28:09.980Z,140347.88
2023-01-23T07:33:13.330Z,140358.97
2023-01-23T07:38:16.683Z,140376.13
2023-01-23T07:43:21.549Z,140340.53
2023-01-23T07:48:24.826Z,140374.88
2023-01-23T07:53:28.107Z,140335.63
2023-01-23T07:58:33.214Z,140333.19
2023-01-23T08:03:39.584Z,140387.19
2023-01-23T08:08:45.414Z,140388.41
2023-01-23T08:13:51.631Z,140395.75
2023-01-23T08:18:55.012Z,140422.78
2023-01-23T08:23:58.616Z,140401.88
2023-01-23T08:29:05.679Z,140422.78
2023-01-23T08:34:09.007Z,140416.66
2023-01-23T08:39:12.419Z,140417.88
2023-01-23T08:44:17.175Z,140465.72
2023-01-23T08:49:20.567Z,140431.34
2023-01-23T08:54:23.836Z,140446.09
2023-01-23T08:59:29.167Z,140471.91
2023-01-23T09:04:32.466Z,140484.09
2023-01-23T09:09:35.873Z,140502.53
2023-01-23T09:14:40.943Z,140527.09
2023-01-23T09:19:46.767Z,140517.25
2023-01-23T09:24:50.617Z,140543.03
2023-01-23T09:29:56.073Z,140525.84
2023-01-23T09:35:00.125Z,140541.81
2023-01-23T09:40:03.870Z,140533.22
2023-01-23T09:45:13.617Z,140555.34
2023-01-23T09:50:19.722Z,140513.56
2023-01-23T09:55:25.458Z,140540.59
2023-01-23T10:00:31.930Z,140474.34
2023-01-23T10:05:39.804Z,140503.75
2023-01-23T10:10:54.837Z,140550.41
2023-01-23T10:16:07.054Z,140538.13
2023-01-23T10:21:16.718Z,140568.84
2023-01-23T10:26:22.150Z,140561.47
2023-01-23T10:31:32.019Z,140599.53
2023-01-23T10:36:47.935Z,140556.56
2023-01-23T10:42:02.388Z,140567.63
2023-01-23T10:47:17.090Z,140610.63
2023-01-23T10:52:50.095Z,140577.41
2023-01-23T10:57:54.720Z,140645.03
2023-01-23T11:03:19.247Z,140610.63
2023-01-23T11:08:27.278Z,140673.28
2023-01-23T11:13:31.828Z,140660.97
2023-01-23T11:18:42.696Z,140619.22
2023-01-23T11:23:46.387Z,140589.72
2023-01-23T11:28:51.251Z,140647.47
2023-01-23T11:34:02.345Z,140627.81
2023-01-23T11:39:13.406Z,140582.38
2023-01-23T11:44:18.619Z,140581.09
2023-01-23T11:49:29.833Z,140547.94
2023-01-23T11:54:48.407Z,140565.16
2023-01-23T12:00:06.818Z,140545.50
2023-01-23T12:05:27.642Z,140536.91
2023-01-23T12:10:39.128Z,140582.38
2023-01-23T12:15:45.462Z,140562.72
2023-01-23T12:20:54.262Z,140568.84
2023-01-23T12:26:02.611Z,140523.38
2023-01-23T12:31:17.939Z,140536.91
2023-01-23T12:36:44.131Z,140540.59
2023-01-23T12:41:58.206Z,140497.59
2023-01-23T12:47:05.629Z,140493.91
2023-01-23T12:52:12.679Z,140491.47
2023-01-23T12:57:52.289Z,140538.13
2023-01-23T13:03:10.288Z,140529.56
2023-01-23T13:08:21.416Z,140577.41
2023-01-23T13:13:27.844Z,140579.88
2023-01-23T13:18:51.401Z,140581.09
2023-01-23T13:24:34.681Z,140570.06
2023-01-23T13:29:50.232Z,140568.84
2023-01-23T13:34:53.908Z,140532.00
2023-01-23T13:40:06.746Z,140557.81
2023-01-23T13:45:28.566Z,140535.69
2023-01-23T14:23:53.393Z,140567.63
2023-01-23T14:28:57.430Z,140551.63
2023-01-23T14:34:09.785Z,140506.22
2023-01-23T14:39:18.606Z,140554.13
2023-01-23T14:44:25.096Z,140529.56
2023-01-23T14:49:31.430Z,140544.28
2023-01-23T14:54:36.822Z,140493.91
2023-01-23T14:59:42.491Z,140492.69
2023-01-23T15:05:07.205Z,140476.78
2023-01-23T15:10:14.409Z,140471.91
2023-01-23T15:15:21.548Z,140452.22
2023-01-23T15:20:31.309Z,140471.91
2023-01-23T15:25:34.973Z,140475.56
2023-01-23T15:30:41.853Z,140506.22
2023-01-23T15:35:48.873Z,140468.16
2023-01-23T15:40:52.345Z,140471.91
2023-01-23T15:45:55.990Z,140393.31
2023-01-23T15:51:01.080Z,140425.22
2023-01-23T15:56:05.301Z,140432.56
2023-01-23T16:01:10.477Z,140433.81
2023-01-23T16:06:17.551Z,140443.66
2023-01-23T16:11:22.186Z,140457.13
2023-01-23T16:16:25.823Z,140464.50
2023-01-23T16:21:32.529Z,140466.94
2023-01-23T16:26:36.118Z,140455.91
2023-01-23T16:31:40.254Z,140479.19
2023-01-23T16:36:45.396Z,140415.41
2023-01-23T16:41:48.809Z,140430.13
2023-01-23T16:46:52.664Z,140373.66
2023-01-23T16:51:59.199Z,140414.16
2023-01-23T16:57:03.117Z,140377.34
2023-01-23T17:02:13.225Z,140410.47
2023-01-23T17:07:19.855Z,140370.00
2023-01-23T17:12:28.683Z,140373.66
2023-01-23T17:17:34.225Z,140327.00
2023-01-23T17:22:40.523Z,140340.53
2023-01-23T17:27:45.542Z,140351.56
2023-01-23T17:32:53.000Z,140347.88
2023-01-23T17:38:01.655Z,140340.53
2023-01-23T17:43:05.237Z,140363.88
2023-01-23T17:48:13.007Z,140314.75
2023-01-23T17:53:20.357Z,140314.75
2023-01-23T17:58:24.565Z,140336.88
2023-01-23T18:03:28.168Z,140362.63
2023-01-23T18:08:33.077Z,140368.75
2023-01-23T18:13:40.273Z,140357.69
2023-01-23T18:18:53.211Z,140317.22
2023-01-23T18:23:58.748Z,140341.75
2023-01-23T18:29:06.047Z,140342.97
2023-01-23T18:34:19.519Z,140340.53
2023-01-23T18:39:32.170Z,140339.31
2023-01-23T18:44:38.432Z,140376.13
2023-01-23T18:49:42.916Z,140360.19
2023-01-23T18:54:54.307Z,140357.69
2023-01-23T19:00:02.916Z,140378.56
2023-01-23T19:05:21.158Z,140335.63
2023-01-23T19:10:29.233Z,140360.19
2023-01-23T19:15:38.006Z,140317.22
2023-01-23T19:20:45.819Z,140344.22
2023-01-23T19:25:51.067Z,140317.22
2023-01-23T19:30:55.189Z,140328.25
2023-01-23T19:35:59.786Z,140313.53
2023-01-23T19:41:07.775Z,140316.00
2023-01-23T19:46:11.279Z,140300.03
2023-01-23T19:51:16.512Z,140293.88
2023-01-23T19:56:21.574Z,140322.13
2023-01-23T20:01:29.554Z,140316.00
2023-01-23T20:06:34.484Z,140284.09
2023-01-23T20:11:40.118Z,140308.63
2023-01-23T20:16:44.398Z,140333.19
2023-01-23T20:21:48.841Z,140302.47
2023-01-23T20:26:56.104Z,140322.13
2023-01-23T20:32:00.771Z,140286.53
2023-01-23T20:37:04.489Z,140293.88
2023-01-23T20:42:11.389Z,140284.09
2023-01-23T20:47:16.466Z,140286.53
2023-01-23T20:52:43.343Z,140320.88
2023-01-23T20:58:09.113Z,140301.25
2023-01-23T21:03:23.658Z,140300.03
2023-01-23T21:08:42.914Z,140277.97
2023-01-23T21:13:54.716Z,140214.16
2023-01-23T21:18:58.393Z,140222.75
2023-01-23T21:24:14.631Z,140181.09
2023-01-23T21:29:23.590Z,140220.31
2023-01-23T21:34:29.660Z,140209.25
2023-01-23T21:39:36.155Z,140204.34
2023-01-23T21:44:41.190Z,140201.91
2023-01-23T21:55:02.566Z,140216.59
2023-01-23T22:00:29.750Z,140210.47
2023-01-23T22:05:35.248Z,140208.03
2023-01-23T22:10:39.652Z,140189.66
2023-01-23T22:15:49.072Z,140174.97
2023-01-23T22:20:56.575Z,140188.44
2023-01-23T22:26:16.092Z,140166.41
2023-01-23T22:31:21.409Z,140161.47
2023-01-23T22:36:25.332Z,140178.63
2023-01-23T22:41:29.258Z,140156.56
2023-01-23T22:46:36.351Z,140171.28
2023-01-23T22:51:39.803Z,140204.34
